Time;durP1;ratioP1;P1;durP2;ratioP2;P2;SDS_P1;SDS_P2;PMS_P1;PMS_P2;Temp;Humidity;BMP_temperature;BMP_pressure;BME280_temperature;BME280_humidity;BME280_pressure;Samples;Min_cycle;Max_cycle;Signal;HPM_P1;HPM_P2
2024/04/06 00:00:48;;;;;;;3.35;1.13;;;;;;;17.43;100.00;101042.25;5272385;28;20028;-78
2024/04/06 00:03:20;;;;;;;3.15;1.30;;;;;;;17.40;100.00;101053.19;5271297;28;20457;-78
2024/04/06 00:05:52;;;;;;;3.83;1.20;;;;;;;17.34;100.00;101057.31;5271070;28;20036;-78
2024/04/06 00:08:23;;;;;;;2.97;1.10;;;;;;;17.27;100.00;101064.28;5268244;28;20058;-78
2024/04/06 00:10:55;;;;;;;2.45;1.15;;;;;;;17.32;100.00;101058.50;5272516;28;20032;-78
2024/04/06 00:13:27;;;;;;;1.95;1.00;;;;;;;17.22;100.00;101059.50;5272331;28;20043;-78
2024/04/06 00:15:59;;;;;;;2.50;1.25;;;;;;;17.18;100.00;101062.66;5274471;28;20083;-77
2024/04/06 00:18:33;;;;;;;2.80;1.13;;;;;;;17.19;100.00;101062.47;5273370;28;20404;-79
2024/04/06 00:21:05;;;;;;;2.92;1.15;;;;;;;17.08;100.00;101059.34;5274186;28;20036;-79
2024/04/06 00:23:37;;;;;;;2.33;1.30;;;;;;;17.06;100.00;101056.88;5272278;28;20036;-77
2024/04/06 00:26:09;;;;;;;3.35;1.38;;;;;;;17.08;100.00;101062.00;5273576;28;20492;-79
2024/04/06 00:28:42;;;;;;;3.65;1.65;;;;;;;16.97;100.00;101069.31;5272346;28;20033;-79
2024/04/06 00:31:13;;;;;;;3.92;1.75;;;;;;;16.97;100.00;101061.38;5272931;28;20044;-77
2024/04/06 00:33:46;;;;;;;2.65;1.30;;;;;;;16.98;100.00;101059.56;5274324;28;21108;-79
2024/04/06 00:36:17;;;;;;;3.60;1.43;;;;;;;16.98;100.00;101057.72;5273723;28;20397;-79
2024/04/06 00:38:49;;;;;;;2.97;1.52;;;;;;;16.96;100.00;101058.88;5274391;28;20078;-79
2024/04/06 00:41:22;;;;;;;3.75;1.25;;;;;;;16.93;100.00;101069.78;5272887;28;20031;-79
2024/04/06 00:43:54;;;;;;;2.13;1.20;;;;;;;16.84;100.00;101058.38;5274789;28;20452;-79
2024/04/06 00:46:26;;;;;;;4.07;1.63;;;;;;;16.83;100.00;101067.31;5274563;28;20025;-79
2024/04/06 00:48:58;;;;;;;2.63;1.20;;;;;;;16.85;100.00;101061.84;5272497;28;20036;-79
2024/04/06 00:51:30;;;;;;;4.80;2.03;;;;;;;16.81;100.00;101048.13;5271404;28;20041;-78
2024/04/06 00:54:02;;;;;;;3.08;1.30;;;;;;;16.77;100.00;101054.75;5272966;28;20340;-78
2024/04/06 00:56:34;;;;;;;1.90;1.10;;;;;;;16.70;100.00;101048.44;5261094;28;20040;-79
2024/04/06 00:59:06;;;;;;;2.35;1.30;;;;;;;16.66;100.00;101061.16;5273191;28;20278;-79
2024/04/06 01:01:38;;;;;;;3.22;1.50;;;;;;;16.66;100.00;101058.50;5276476;28;20032;-78
2024/04/06 01:04:10;;;;;;;3.65;1.13;;;;;;;16.65;100.00;101056.03;5277075;28;20041;-78
2024/04/06 01:06:42;;;;;;;3.63;1.48;;;;;;;16.52;100.00;101046.78;5279008;28;20460;-78
2024/04/06 01:09:14;;;;;;;2.25;1.10;;;;;;;16.52;100.00;101052.06;5277170;28;20498;-77
2024/04/06 01:11:47;;;;;;;4.40;1.42;;;;;;;16.48;100.00;101048.09;5276846;28;20078;-77
2024/04/06 01:14:19;;;;;;;3.08;1.40;;;;;;;16.47;100.00;101050.88;5276341;28;20039;-79
2024/04/06 01:16:51;;;;;;;2.55;1.30;;;;;;;16.39;100.00;101062.28;5278848;28;20032;-79
2024/04/06 01:19:23;;;;;;;3.05;0.95;;;;;;;16.14;100.00;101019.13;5277120;28;20024;-79
2024/04/06 01:21:55;;;;;;;3.40;1.50;;;;;;;16.29;100.00;101041.28;5276007;28;20051;-78
2024/04/06 01:24:30;;;;;;;3.35;1.40;;;;;;;16.35;100.00;101052.19;5275257;28;20036;-76
2024/04/06 01:27:03;;;;;;;5.13;1.20;;;;;;;16.29;100.00;101051.88;5277234;28;20035;-78
2024/04/06 01:29:35;;;;;;;2.58;1.20;;;;;;;16.29;100.00;101043.13;5277171;28;20051;-76
2024/04/06 01:32:07;;;;;;;3.65;1.13;;;;;;;16.30;100.00;101050.06;5280763;22;20045;-77
2024/04/06 01:34:39;;;;;;;1.80;1.00;;;;;;;16.23;100.00;101049.88;5247302;28;20039;-75
2024/04/06 01:37:11;;;;;;;3.58;1.48;;;;;;;16.23;100.00;101044.56;5252073;28;20036;-76
2024/04/06 01:39:43;;;;;;;5.23;1.90;;;;;;;16.21;100.00;101046.56;5249945;28;20496;-74
2024/04/06 01:42:15;;;;;;;5.30;1.50;;;;;;;16.18;100.00;101044.25;5248311;28;20311;-75
2024/04/06 01:44:47;;;;;;;3.20;1.48;;;;;;;16.18;100.00;101056.63;5252708;28;20039;-76
2024/04/06 01:47:19;;;;;;;4.00;1.52;;;;;;;16.14;100.00;101056.13;5250912;28;20032;-77
2024/04/06 01:49:51;;;;;;;3.45;1.77;;;;;;;16.13;100.00;101054.47;5248147;28;20038;-77
2024/04/06 01:52:23;;;;;;;3.43;1.43;;;;;;;16.12;100.00;101060.75;5251896;28;20033;-75
2024/04/06 01:54:57;;;;;;;3.50;1.65;;;;;;;16.05;100.00;101046.50;5258575;28;20047;-77
2024/04/06 01:57:29;;;;;;;4.72;1.70;;;;;;;16.01;100.00;101042.53;5268860;28;20036;-77
2024/04/06 02:00:01;;;;;;;3.83;1.52;;;;;;;16.09;100.00;101033.81;5249806;28;20032;-75
2024/04/06 02:02:33;;;;;;;2.63;1.40;;;;;;;16.10;100.00;101030.16;5248803;28;21127;-77
2024/04/06 02:05:05;;;;;;;3.42;1.40;;;;;;;16.00;100.00;101023.22;5250629;28;20040;-77
2024/04/06 02:07:37;;;;;;;3.50;1.42;;;;;;;16.09;100.00;101033.81;5250920;28;20029;-77
2024/04/06 02:10:09;;;;;;;3.15;1.48;;;;;;;16.11;100.00;101035.31;5249451;28;20051;-76
2024/04/06 02:12:41;;;;;;;3.00;1.60;;;;;;;16.11;100.00;101019.44;5249229;28;20037;-77
2024/04/06 02:15:13;;;;;;;2.78;1.60;;;;;;;16.13;100.00;101021.91;5249742;28;20129;-76
2024/04/06 02:17:45;;;;;;;3.63;1.63;;;;;;;16.09;100.00;100997.63;5249541;28;20052;-77
2024/04/06 02:20:17;;;;;;;3.35;1.50;;;;;;;16.16;100.00;101022.41;5249936;28;20279;-77
2024/04/06 02:22:49;;;;;;;4.45;1.50;;;;;;;16.19;100.00;101024.75;5249490;28;20051;-77
2024/04/06 02:25:21;;;;;;;2.88;1.20;;;;;;;16.14;100.00;101019.13;5251211;28;20695;-77
2024/04/06 02:27:54;;;;;;;4.80;1.52;;;;;;;16.21;100.00;101014.84;5248393;28;20041;-75
2024/04/06 02:30:26;;;;;;;;;;;;;;;16.94;100.00;101011.41;5250391;28;20049;-77
2024/04/06 02:32:58;;;;;;;3.63;1.33;;;;;;;16.22;100.00;101010.38;5235325;28;19928;-75
2024/04/06 02:35:30;;;;;;;3.63;1.60;;;;;;;16.12;100.00;100999.94;5236866;28;20037;-76
2024/04/06 02:38:02;;;;;;;3.90;1.65;;;;;;;16.12;100.00;101026.38;5234932;28;20047;-76
2024/04/06 02:40:34;;;;;;;5.22;1.70;;;;;;;16.12;100.00;101023.72;5238603;28;20248;-75
2024/04/06 02:43:06;;;;;;;2.85;1.35;;;;;;;16.12;100.00;101021.09;5237335;28;20060;-75
2024/04/06 02:45:39;;;;;;;3.47;1.77;;;;;;;16.14;100.00;101013.00;5236168;28;20051;-75
2024/04/06 02:48:11;;;;;;;2.03;1.20;;;;;;;16.08;100.00;101017.13;5238498;28;20036;-76
2024/04/06 02:50:43;;;;;;;3.95;1.70;;;;;;;16.05;100.00;101022.72;5235796;28;20033;-77
2024/04/06 02:53:15;;;;;;;2.13;1.25;;;;;;;16.08;100.00;101003.91;5236646;28;20808;-75
2024/04/06 02:55:47;;;;;;;3.08;1.30;;;;;;;16.03;100.00;101006.22;5239896;28;20394;-78
2024/04/06 02:58:19;;;;;;;3.95;1.27;;;;;;;15.92;100.00;100991.50;5234875;28;20025;-75
2024/04/06 03:00:51;;;;;;;3.95;1.45;;;;;;;15.97;100.00;101001.56;5233656;28;20438;-77
2024/04/06 03:03:23;;;;;;;3.00;1.57;;;;;;;16.00;100.00;101001.25;5232999;28;20038;-74
2024/04/06 03:05:55;;;;;;;2.25;1.40;;;;;;;15.92;100.00;101003.88;5233947;28;20300;-77
2024/04/06 03:08:27;;;;;;;3.03;1.30;;;;;;;15.86;100.00;100997.41;5239559;28;20537;-76
2024/04/06 03:10:58;;;;;;;2.80;1.38;;;;;;;15.85;100.00;101005.50;5238248;28;20064;-76
2024/04/06 03:13:30;;;;;;;3.35;1.55;;;;;;;15.76;100.00;101000.19;5234858;28;20048;-78
2024/04/06 03:16:02;;;;;;;3.78;1.50;;;;;;;15.70;100.00;100984.97;5236071;28;20040;-76
2024/04/06 03:18:34;;;;;;;2.65;1.40;;;;;;;15.67;100.00;100989.75;5242909;28;20040;-77
2024/04/06 03:21:07;;;;;;;3.97;1.77;;;;;;;15.64;100.00;100977.66;5237729;28;20029;-75
2024/04/06 03:23:39;;;;;;;4.53;1.70;;;;;;;15.60;100.00;100960.47;5244188;28;20052;-78
2024/04/06 03:26:10;;;;;;;3.38;1.40;;;;;;;15.54;100.00;100947.94;5246097;28;20045;-78
2024/04/06 03:28:42;;;;;;;4.57;1.45;;;;;;;15.62;100.00;100969.06;5240916;28;20035;-75
2024/04/06 03:31:14;;;;;;;3.33;1.48;;;;;;;15.56;100.00;100959.97;5242430;28;20394;-77
2024/04/06 03:33:46;;;;;;;4.80;1.88;;;;;;;15.62;100.00;100966.44;5271079;28;20101;-77
2024/04/06 03:36:18;;;;;;;3.13;1.65;;;;;;;15.56;100.00;100967.88;5270756;28;20036;-78
2024/04/06 03:38:50;;;;;;;4.63;1.80;;;;;;;15.47;100.00;100975.94;5233185;28;20123;-76
2024/04/06 03:41:22;;;;;;;3.63;1.48;;;;;;;15.49;100.00;100989.81;5272006;28;20389;-75
2024/04/06 03:43:54;;;;;;;2.70;1.50;;;;;;;15.52;100.00;100989.50;5269344;28;20036;-77
2024/04/06 03:46:28;;;;;;;3.83;1.50;;;;;;;15.49;100.00;100989.81;5270614;28;20396;-75
2024/04/06 03:49:00;;;;;;;2.42;1.40;;;;;;;15.53;100.00;100991.13;5251222;28;20071;-77
2024/04/06 03:51:32;;;;;;;3.40;1.48;;;;;;;15.44;100.00;100979.72;5253205;28;20053;-76
2024/04/06 03:54:04;;;;;;;4.47;1.98;;;;;;;15.32;100.00;100971.25;5272310;28;20044;-75
2024/04/06 03:56:37;;;;;;;3.67;1.67;;;;;;;15.40;100.00;100967.00;5271106;28;20471;-76
2024/04/06 03:59:09;;;;;;;3.28;1.40;;;;;;;15.44;100.00;100982.38;5269962;28;20025;-79
2024/04/06 04:01:41;;;;;;;3.85;1.60;;;;;;;15.44;100.00;100978.91;5252108;28;20999;-75
2024/04/06 04:04:12;;;;;;;3.90;1.70;;;;;;;15.39;100.00;100952.97;5270237;28;20036;-75
2024/04/06 04:06:45;;;;;;;3.88;1.70;;;;;;;15.41;100.00;100955.44;5254894;28;20494;-77
2024/04/06 04:09:17;;;;;;;4.72;1.75;;;;;;;15.41;100.00;100960.72;5271944;28;20024;-76
2024/04/06 04:11:50;;;;;;;3.78;1.63;;;;;;;15.31;100.00;100952.94;5275072;28;20044;-75
2024/04/06 04:14:21;;;;;;;3.33;1.85;;;;;;;15.39;100.00;100954.81;5255265;28;20240;-76
2024/04/06 04:16:53;;;;;;;4.10;1.88;;;;;;;15.28;100.00;100962.00;5252882;28;20055;-81
2024/04/06 04:19:25;;;;;;;4.70;2.00;;;;;;;15.27;100.00;100972.72;5255631;28;20151;-75
2024/04/06 04:21:57;;;;;;;3.55;1.55;;;;;;;15.32;100.00;100973.91;5274989;28;20205;-79
2024/04/06 04:24:30;;;;;;;3.60;1.75;;;;;;;15.31;100.00;100977.53;5274541;28;20055;-76
2024/04/06 04:27:02;;;;;;;5.83;1.83;;;;;;;15.31;100.00;100966.16;5272167;28;20036;-78
2024/04/06 04:29:34;;;;;;;4.10;2.00;;;;;;;15.26;100.00;100952.56;5273808;28;20771;-76
2024/04/06 04:32:06;;;;;;;2.15;1.42;;;;;;;15.29;100.00;100961.00;5272921;28;20051;-77
2024/04/06 04:34:38;;;;;;;8.38;1.80;;;;;;;15.25;100.00;100959.69;5258338;28;20037;-76
2024/04/06 04:37:10;;;;;;;4.78;2.08;;;;;;;15.26;100.00;100942.84;5276532;28;20564;-75
2024/04/06 04:39:42;;;;;;;2.55;1.52;;;;;;;15.33;100.00;100932.50;5276773;28;20028;-76
2024/04/06 04:42:14;;;;;;;3.08;1.95;;;;;;;15.27;100.00;100914.66;5275788;28;20027;-78
2024/04/06 04:44:46;;;;;;;4.50;2.13;;;;;;;15.20;100.00;100916.28;5257418;28;20036;-75
2024/04/06 04:47:18;;;;;;;4.88;1.70;;;;;;;15.20;100.00;100908.38;5257099;28;20477;-78
2024/04/06 04:49:50;;;;;;;2.72;1.50;;;;;;;15.17;100.00;100921.88;5273632;28;20059;-75
2024/04/06 04:52:22;;;;;;;4.07;2.13;;;;;;;15.22;100.00;100917.75;5255206;28;20040;-79
2024/04/06 04:54:54;;;;;;;3.95;1.65;;;;;;;15.21;100.00;100918.75;5275190;28;20496;-75
2024/04/06 04:57:26;;;;;;;3.85;2.08;;;;;;;15.12;100.00;100901.25;5275336;28;20035;-76
2024/04/06 04:59:58;;;;;;;4.03;2.15;;;;;;;15.22;100.00;100907.19;5274046;28;20055;-76
2024/04/06 05:02:30;;;;;;;5.60;1.83;;;;;;;15.22;100.00;100906.38;5275770;28;20035;-81
2024/04/06 05:05:03;;;;;;;3.55;1.77;;;;;;;15.17;100.00;100909.50;5275990;28;20032;-75
2024/04/06 05:07:35;;;;;;;5.80;1.92;;;;;;;15.19;100.00;100923.38;5256557;28;20504;-75
2024/04/06 05:10:10;;;;;;;4.57;1.92;;;;;;;15.20;100.00;100921.56;5275613;28;20040;-78
2024/04/06 05:12:42;;;;;;;3.15;1.92;;;;;;;15.13;100.00;100918.72;5273138;28;20033;-76
2024/04/06 05:15:14;;;;;;;3.03;1.80;;;;;;;15.15;100.00;100921.19;5254619;28;20045;-78
2024/04/06 05:17:46;;;;;;;4.38;1.70;;;;;;;15.20;100.00;100934.75;5274913;28;20026;-77
2024/04/06 05:20:18;;;;;;;4.47;2.17;;;;;;;15.23;100.00;100940.56;5270900;28;20028;-79
2024/04/06 05:22:50;;;;;;;4.97;2.15;;;;;;;15.21;100.00;100937.22;5265497;28;20699;-75
2024/04/06 05:25:22;;;;;;;3.50;2.03;;;;;;;15.16;100.00;100922.88;5267665;28;20039;-77
2024/04/06 05:27:54;;;;;;;3.65;1.95;;;;;;;15.24;100.00;100926.34;5267552;28;20048;-80
2024/04/06 05:30:25;;;;;;;4.65;2.28;;;;;;;15.24;100.00;100910.53;5265305;28;20477;-77
2024/04/06 05:32:57;;;;;;;5.15;2.50;;;;;;;15.20;100.00;100913.66;5267704;28;20050;-77
2024/04/06 05:35:29;;;;;;;5.72;2.22;;;;;;;15.16;100.00;100909.66;5268562;28;20036;-78
2024/04/06 05:38:03;;;;;;;6.47;3.10;;;;;;;15.13;100.00;100909.97;5268564;28;20211;-79
2024/04/06 05:40:42;;;;;;;4.20;2.35;;;;;;;15.43;100.00;100914.72;5266770;28;20029;-75
2024/04/06 05:43:14;;;;;;;4.53;2.67;;;;;;;15.30;100.00;100912.53;5268190;28;20063;-78
2024/04/06 05:45:46;;;;;;;6.25;2.67;;;;;;;15.38;100.00;100919.66;5268750;28;20025;-77
2024/04/06 05:48:18;;;;;;;5.50;2.63;;;;;;;15.27;100.00;100919.94;5265710;28;20036;-77
2024/04/06 05:50:50;;;;;;;6.25;2.42;;;;;;;15.37;100.00;100922.44;5249319;28;20041;-78
2024/04/06 05:53:25;;;;;;;4.25;2.35;;;;;;;15.42;100.00;100920.13;5266453;28;20025;-76
2024/04/06 05:55:57;;;;;;;4.18;2.28;;;;;;;15.39;100.00;100918.66;5268346;28;20051;-76
2024/04/06 05:58:30;;;;;;;3.20;2.08;;;;;;;15.41;100.00;100923.78;5268359;28;20033;-77
2024/04/06 06:01:02;;;;;;;4.28;1.95;;;;;;;15.45;100.00;100923.28;5266249;28;20817;-76
2024/04/06 06:03:34;;;;;;;3.95;2.35;;;;;;;15.41;100.00;100921.13;5268581;28;20039;-77
2024/04/06 06:06:06;;;;;;;3.83;1.88;;;;;;;15.43;100.00;100908.63;5267433;28;20028;-79
2024/04/06 06:08:37;;;;;;;2.97;1.75;;;;;;;15.50;100.00;100913.09;5265852;28;20482;-75
2024/04/06 06:11:09;;;;;;;4.25;1.80;;;;;;;15.57;100.00;100918.56;5268046;28;20029;-79
2024/04/06 06:13:41;;;;;;;3.97;2.38;;;;;;;15.53;100.00;100904.00;5266844;28;20385;-78
2024/04/06 06:16:13;;;;;;;5.18;1.85;;;;;;;15.51;100.00;100906.81;5249334;28;20292;-77
2024/04/06 06:18:45;;;;;;;5.03;1.80;;;;;;;15.58;100.00;100926.31;5248780;28;20280;-78
2024/04/06 06:21:17;;;;;;;4.63;1.80;;;;;;;15.59;100.00;100906.00;5268693;28;20039;-77
2024/04/06 06:23:49;;;;;;;3.67;1.85;;;;;;;15.54;100.00;100906.50;5266652;28;20478;-81
2024/04/06 06:26:21;;;;;;;2.80;1.58;;;;;;;15.65;100.00;100908.06;5268308;28;20036;-75
2024/04/06 06:28:52;;;;;;;5.15;1.70;;;;;;;15.68;100.00;100907.72;5267299;28;20036;-78
2024/04/06 06:31:24;;;;;;;3.20;1.75;;;;;;;15.74;100.00;100915.00;5270343;28;20055;-75
2024/04/06 06:33:57;;;;;;;3.05;1.58;;;;;;;15.74;100.00;100911.53;5267095;28;20476;-79
2024/04/06 06:36:29;;;;;;;3.60;1.73;;;;;;;15.82;100.00;100908.91;5270904;28;20303;-80
2024/04/06 06:39:01;;;;;;;3.28;1.65;;;;;;;15.86;100.00;100912.03;5265930;28;20028;-75
2024/04/06 06:41:33;;;;;;;4.28;1.65;;;;;;;15.94;100.00;100910.22;5267709;28;20036;-76
2024/04/06 06:44:06;;;;;;;4.10;1.83;;;;;;;16.01;100.00;100913.88;5249804;28;20063;-79
2024/04/06 06:46:38;;;;;;;2.97;1.35;;;;;;;16.21;100.00;100914.41;5268185;28;20043;-76
2024/04/06 06:49:10;;;;;;;3.75;1.60;;;;;;;16.34;100.00;100913.06;5265848;28;20033;-76
2024/04/06 06:51:42;;;;;;;4.70;1.60;;;;;;;16.49;100.00;100912.22;5267303;28;20477;-75
2024/04/06 06:54:14;;;;;;;2.83;1.23;;;;;;;16.52;100.00;100884.63;5266661;28;20032;-75
2024/04/06 06:56:46;;;;;;;4.15;1.70;;;;;;;16.68;100.00;100895.16;5267181;28;20485;-75
2024/04/06 06:59:18;;;;;;;3.67;1.63;;;;;;;16.78;100.00;100873.81;5265315;28;20036;-75
2024/04/06 07:01:49;;;;;;;3.05;1.77;;;;;;;16.96;100.00;100884.19;5248361;28;20037;-79
2024/04/06 07:04:21;;;;;;;3.45;1.30;;;;;;;17.06;100.00;100884.00;5267715;28;20393;-76
2024/04/06 07:06:53;;;;;;;3.88;1.38;;;;;;;17.23;100.00;100873.16;5247230;28;20040;-77
2024/04/06 07:09:25;;;;;;;3.78;1.60;;;;;;;17.28;100.00;100851.47;5264891;28;20047;-78
2024/04/06 07:11:57;;;;;;;2.63;1.35;;;;;;;17.44;100.00;100864.63;5262866;28;20390;-79
2024/04/06 07:14:29;;;;;;;3.28;1.60;;;;;;;17.49;100.00;100853.50;5266082;28;20032;-77
2024/04/06 07:17:01;;;;;;;2.63;1.25;;;;;;;17.74;100.00;100862.94;5263376;28;20028;-79
2024/04/06 07:19:33;;;;;;;3.30;1.48;;;;;;;17.70;100.00;100861.66;5246776;28;20072;-77
2024/04/06 07:22:05;;;;;;;2.58;1.40;;;;;;;17.88;100.00;100855.25;5265244;28;20043;-78
2024/04/06 07:24:37;;;;;;;4.28;1.65;;;;;;;17.89;100.00;100862.22;5266424;28;20032;-77
2024/04/06 07:27:09;;;;;;;3.50;1.35;;;;;;;17.97;100.00;100854.19;5246879;28;20586;-77
2024/04/06 07:29:41;;;;;;;3.92;1.60;;;;;;;18.04;100.00;100855.13;5264871;28;20032;-79
2024/04/06 07:32:13;;;;;;;4.35;1.63;;;;;;;18.16;100.00;100851.03;5263517;22;20143;-77
2024/04/06 07:34:45;;;;;;;4.72;1.52;;;;;;;18.16;100.00;100843.09;5279687;28;20033;-79
2024/04/06 07:37:17;;;;;;;3.42;1.50;;;;;;;18.37;100.00;100854.81;5265371;28;20029;-77
2024/04/06 07:39:49;;;;;;;3.35;1.30;;;;;;;18.24;100.00;100829.75;5261028;28;20508;-80
2024/04/06 07:42:21;;;;;;;2.50;1.33;;;;;;;18.34;100.00;100856.03;5263911;28;20029;-77
2024/04/06 07:44:53;;;;;;;4.88;1.67;;;;;;;18.53;100.00;100849.38;5265612;28;20036;-82
2024/04/06 07:47:25;;;;;;;2.35;1.23;;;;;;;18.63;100.00;100849.91;5265204;28;20025;-77
2024/04/06 07:49:57;;;;;;;4.60;1.52;;;;;;;18.67;100.00;100845.88;5264663;28;20039;-78
2024/04/06 07:52:29;;;;;;;3.47;1.52;;;;;;;18.83;99.51;100852.06;5265500;28;20547;-78
2024/04/06 07:55:01;;;;;;;3.13;1.30;;;;;;;18.97;100.00;100856.50;5265147;28;20053;-79
2024/04/06 07:57:35;;;;;;;2.30;1.13;;;;;;;19.09;96.87;100848.91;5261329;28;20291;-80
2024/04/06 08:00:07;;;;;;;3.35;1.70;;;;;;;19.30;93.91;100845.47;5262698;28;20035;-82
2024/04/06 08:02:43;;;;;;;3.25;1.25;;;;;;;19.51;90.90;100848.19;5264159;28;20032;-77
2024/04/06 08:05:15;;;;;;;4.25;1.25;;;;;;;19.53;87.61;100848.78;5265908;28;20032;-80
2024/04/06 08:07:47;;;;;;;3.30;1.58;;;;;;;19.69;89.07;100848.56;5263677;28;20416;-77
2024/04/06 08:10:20;;;;;;;3.65;1.58;;;;;;;19.91;87.07;100845.91;5262472;28;20032;-78
2024/04/06 08:12:55;;;;;;;4.97;1.30;;;;;;;20.07;82.54;100858.13;5264093;28;20044;-82
2024/04/06 08:15:27;;;;;;;2.40;1.35;;;;;;;20.11;82.77;100854.88;5281005;28;20033;-77
2024/04/06 08:17:59;;;;;;;3.15;1.02;;;;;;;20.32;77.27;100851.34;5265196;28;20043;-78
2024/04/06 08:20:31;;;;;;;2.40;1.20;;;;;;;20.32;77.32;100832.72;5264541;28;20017;-78
2024/04/06 08:23:03;;;;;;;4.50;1.20;;;;;;;20.44;71.02;100832.19;5264565;28;20039;-77
2024/04/06 08:25:35;;;;;;;3.20;1.13;;;;;;;20.45;74.57;100831.16;5265488;28;20107;-81
2024/04/06 08:28:07;;;;;;;2.23;1.10;;;;;;;20.50;72.96;100832.28;5264474;28;20081;-78
2024/04/06 08:30:39;;;;;;;2.63;1.42;;;;;;;20.71;74.05;100826.03;5264959;28;20039;-79
2024/04/06 08:33:10;;;;;;;3.57;1.47;;;;;;;20.88;70.33;100835.34;5276718;28;20044;-79
2024/04/06 08:35:42;;;;;;;3.43;1.30;;;;;;;21.11;68.03;100829.69;5286477;28;20715;-77
2024/04/06 08:38:14;;;;;;;3.63;1.40;;;;;;;21.31;66.82;100831.59;5284796;28;20036;-78
2024/04/06 08:40:48;;;;;;;4.20;1.20;;;;;;;21.28;64.99;100824.81;5286563;28;20460;-77
2024/04/06 08:43:23;;;;;;;4.32;1.27;;;;;;;21.57;65.96;100820.22;5286044;28;20051;-77
2024/04/06 08:45:54;;;;;;;4.05;1.20;;;;;;;21.60;63.76;100819.81;5284788;28;20507;-77
2024/04/06 08:48:29;;;;;;;2.53;1.10;;;;;;;21.69;59.96;100820.41;5285454;28;20199;-81
2024/04/06 08:51:06;;;;;;;4.40;1.33;;;;;;;21.85;59.74;100820.00;5283772;28;20558;-81
2024/04/06 08:53:38;;;;;;;6.43;1.38;;;;;;;21.76;57.75;100827.41;5286465;28;20027;-79
2024/04/06 08:56:15;;;;;;;3.23;1.23;;;;;;;21.85;57.59;100818.16;5286387;28;20497;-78
2024/04/06 08:58:47;;;;;;;3.92;1.00;;;;;;;21.90;57.74;100822.09;5284204;28;20041;-81
2024/04/06 09:01:18;;;;;;;2.93;1.10;;;;;;;21.98;56.53;100808.53;5285115;28;20024;-78
2024/04/06 09:03:50;;;;;;;2.67;0.90;;;;;;;22.15;57.20;100803.63;5285852;28;20506;-78
2024/04/06 09:06:22;;;;;;;4.37;1.30;;;;;;;22.24;59.04;100794.38;5286060;28;20036;-80
2024/04/06 09:08:54;;;;;;;5.27;1.10;;;;;;;22.43;56.47;100795.38;5283202;28;20945;-80
2024/04/06 09:11:26;;;;;;;3.33;1.43;;;;;;;22.43;55.26;100790.84;5286119;28;20031;-80
2024/04/06 09:14:02;;;;;;;2.43;1.30;;;;;;;22.51;53.65;100771.94;5283879;28;20061;-78
2024/04/06 09:16:35;;;;;;;6.20;1.30;;;;;;;22.57;50.31;100779.06;5286771;28;20032;-79
2024/04/06 09:19:08;;;;;;;3.13;0.93;;;;;;;22.66;50.85;100781.53;5282529;28;20496;-80
2024/04/06 09:21:39;;;;;;;3.95;1.00;;;;;;;22.54;50.33;100768.84;5287129;28;20031;-80
2024/04/06 09:24:12;;;;;;;2.57;1.00;;;;;;;22.70;50.02;100766.72;5288808;28;20391;-80
2024/04/06 09:26:46;;;;;;;5.60;1.05;;;;;;;22.67;48.34;100769.81;5287910;28;20051;-80
2024/04/06 09:29:17;;;;;;;2.92;1.17;;;;;;;22.57;49.81;100775.59;5284174;28;20035;-78
2024/04/06 09:31:50;;;;;;;2.50;1.17;;;;;;;22.66;48.67;100762.84;5284243;28;20472;-81
2024/04/06 09:34:22;;;;;;;2.67;1.00;;;;;;;23.06;47.58;100772.31;5287909;28;20461;-78
2024/04/06 09:37:01;;;;;;;4.13;1.20;;;;;;;23.39;47.93;100768.63;5287785;28;20035;-79
2024/04/06 09:39:35;;;;;;;2.88;1.13;;;;;;;23.44;45.61;100760.78;5286945;28;20427;-80
2024/04/06 09:42:09;;;;;;;2.05;0.85;;;;;;;23.58;46.64;100760.69;5286027;28;20032;-81
2024/04/06 09:44:41;;;;;;;2.75;1.10;;;;;;;23.77;44.18;100754.38;5288445;28;20035;-79
2024/04/06 09:47:14;;;;;;;5.25;1.45;;;;;;;23.83;44.23;100753.50;5284659;28;20036;-80
2024/04/06 09:49:48;;;;;;;2.58;0.95;;;;;;;24.06;45.32;100742.19;5283958;28;20035;-80
2024/04/06 09:52:20;;;;;;;2.63;1.02;;;;;;;23.93;43.45;100734.25;5289586;28;20038;-81
2024/04/06 09:54:53;;;;;;;1.77;0.90;;;;;;;23.96;44.09;100731.97;5288149;28;20032;-83
2024/04/06 09:57:26;;;;;;;6.75;1.23;;;;;;;23.93;43.26;100729.72;5265460;28;20040;-81
2024/04/06 10:00:07;;;;;;;2.65;1.08;;;;;;;24.01;41.52;100739.31;5285827;28;20024;-78
2024/04/06 10:02:43;;;;;;;3.08;1.00;;;;;;;23.85;41.30;100734.56;5287156;28;20024;-82
2024/04/06 10:05:17;;;;;;;3.13;1.10;;;;;;;23.93;41.26;100743.09;5287409;28;20027;-80
2024/04/06 10:07:50;;;;;;;2.60;0.82;;;;;;;23.97;41.82;100757.69;5285881;28;20035;-78
2024/04/06 10:10:31;;;;;;;2.42;0.90;;;;;;;24.17;41.11;100743.28;5287058;28;20164;-83
2024/04/06 10:13:04;;;;;;;2.72;0.98;;;;;;;24.02;40.31;100740.97;5288020;28;20039;-79
2024/04/06 10:15:40;;;;;;;3.08;1.20;;;;;;;24.16;40.48;100729.06;5288451;28;20763;-79
2024/04/06 10:18:13;;;;;;;2.92;1.10;;;;;;;23.98;39.85;100726.38;5286070;28;20043;-84
2024/04/06 10:20:44;;;;;;;2.65;0.90;;;;;;;24.08;39.32;100728.56;5268884;28;20036;-83
2024/04/06 10:23:16;;;;;;;2.60;1.00;;;;;;;23.97;39.69;100728.25;5286624;28;20028;-79
2024/04/06 10:25:48;;;;;;;2.07;1.03;;;;;;;24.08;39.69;100713.31;5288531;28;20273;-79
2024/04/06 10:28:24;;;;;;;1.98;1.02;;;;;;;24.08;39.40;100724.03;5286353;28;20050;-81
2024/04/06 10:30:56;;;;;;;2.35;0.80;;;;;;;23.97;40.17;100716.72;5284405;28;20040;-79
2024/04/06 10:33:29;;;;;;;2.83;0.98;;;;;;;24.15;39.71;100722.09;5286789;28;20060;-79
2024/04/06 10:36:02;;;;;;;2.63;1.10;;;;;;;24.38;40.49;100725.97;5288069;28;20331;-84
2024/04/06 10:38:34;;;;;;;2.70;1.00;;;;;;;24.54;38.71;100720.00;5286656;28;20040;-80
2024/04/06 10:41:08;;;;;;;2.88;1.13;;;;;;;24.69;38.80;100714.28;5287502;28;20043;-79
2024/04/06 10:43:40;;;;;;;3.40;1.00;;;;;;;24.82;38.10;100711.44;5287371;28;20032;-79
2024/04/06 10:46:12;;;;;;;2.20;0.90;;;;;;;24.84;36.97;100712.00;5286359;28;20040;-80
2024/04/06 10:48:44;;;;;;;2.60;0.98;;;;;;;24.89;37.25;100724.72;5286472;28;20054;-82
2024/04/06 10:51:16;;;;;;;3.85;0.90;;;;;;;24.95;37.64;100713.09;5286436;28;20760;-79
2024/04/06 10:53:49;;;;;;;3.47;0.80;;;;;;;24.93;36.40;100697.25;5284357;28;20066;-78
2024/04/06 10:56:21;;;;;;;1.67;0.80;;;;;;;25.04;37.05;100705.53;5286207;28;20032;-85
2024/04/06 10:58:53;;;;;;;2.00;0.90;;;;;;;25.11;36.36;100696.38;5287087;28;20035;-80
2024/04/06 11:01:26;;;;;;;3.58;1.00;;;;;;;25.23;35.67;100693.75;5287450;28;20016;-80
2024/04/06 11:03:58;;;;;;;2.78;0.77;;;;;;;25.33;35.62;100691.28;5284488;28;20032;-78
2024/04/06 11:06:30;;;;;;;4.47;1.33;;;;;;;25.49;35.48;100671.00;5286329;28;20054;-78
2024/04/06 11:09:06;;;;;;;4.88;0.90;;;;;;;25.66;35.20;100666.59;5284799;28;20055;-83
2024/04/06 11:11:38;;;;;;;1.63;0.70;;;;;;;25.53;34.51;100660.63;5286602;28;20035;-80
2024/04/06 11:14:10;;;;;;;1.92;0.90;;;;;;;25.63;33.59;100667.03;5286332;28;20027;-79
2024/04/06 11:16:43;;;;;;;3.08;0.90;;;;;;;25.52;34.72;100656.31;5286666;28;20024;-81
2024/04/06 11:19:17;;;;;;;2.72;0.88;;;;;;;25.73;33.83;100682.56;5284531;28;20031;-78
2024/04/06 11:21:48;;;;;;;1.35;0.88;;;;;;;25.74;33.83;100686.88;5286146;28;20241;-84
2024/04/06 11:24:20;;;;;;;3.47;1.15;;;;;;;25.80;34.10;100677.94;5286414;28;20376;-81
2024/04/06 11:26:52;;;;;;;3.15;0.90;;;;;;;25.85;33.58;100683.41;5285424;28;20039;-80
2024/04/06 11:29:25;;;;;;;1.98;0.80;;;;;;;25.90;33.80;100677.31;5281010;28;20053;-80
2024/04/06 11:31:57;;;;;;;2.78;1.00;;;;;;;25.89;33.60;100679.19;5283945;28;20048;-79
2024/04/06 11:34:29;;;;;;;5.70;1.30;;;;;;;26.05;33.71;100687.56;5287854;28;20046;-79
2024/04/06 11:37:01;;;;;;;1.92;0.77;;;;;;;26.07;32.84;100672.88;5285833;28;20036;-80
2024/04/06 11:39:33;;;;;;;2.88;0.82;;;;;;;26.16;32.75;100659.88;5284032;28;20020;-81
2024/04/06 11:42:05;;;;;;;1.83;0.82;;;;;;;26.25;32.37;100655.75;5285319;28;20387;-82